Terminal Aerodrome Forecast
Issued by NWS Memphis, TN

Home | Current Version | Previous Version | Text Only | Print | Product List | Glossary On
Versions: 1 2 3 4 5 6 7 8 9 10 11 12 13 14
000
FTUS44 KMEG 012330
TAFMKL
TAF
KMKL 012330Z 0200/0224 24006KT P6SM BKN250
     FM020100 19008KT P6SM BKN150
     FM021000 22010KT P6SM VCTS SCT040CB OVC100
      TEMPO 0211/0215 VRB10G20KT 3SM TSRA BKN040CB
     FM021800 22010G20KT P6SM VCTS OVC040CB=

USA.gov is the U.S. government's official web portal to all federal, state and local government web resources and services.